createdAt,value
2019-01-30T00:00:04.560Z,98942.98
2019-01-30T00:02:32.537Z,98945.59
2019-01-30T00:05:00.506Z,98946.73
2019-01-30T00:07:28.195Z,98949.00
2019-01-30T00:09:56.135Z,98944.09
2019-01-30T00:12:24.102Z,98934.31
2019-01-30T00:14:52.076Z,98936.39
2019-01-30T00:17:20.040Z,98927.13
2019-01-30T00:19:48.012Z,98936.27
2019-01-30T00:22:15.979Z,98933.20
2019-01-30T00:24:43.949Z,98930.50
2019-01-30T00:27:11.918Z,98927.94
2019-01-30T00:29:39.897Z,98933.31
2019-01-30T00:32:07.505Z,98918.52
2019-01-30T00:34:35.137Z,98911.25
2019-01-30T00:37:03.081Z,98913.81
2019-01-30T00:39:31.049Z,98917.66
2019-01-30T00:41:58.670Z,98909.02
2019-01-30T00:44:26.583Z,98908.66
2019-01-30T00:46:54.203Z,98908.97
2019-01-30T00:49:22.110Z,98905.46
2019-01-30T00:51:50.081Z,98901.27
2019-01-30T00:54:17.711Z,98899.45
2019-01-30T00:56:45.339Z,98898.03
2019-01-30T00:59:13.276Z,98903.55
2019-01-30T01:01:41.259Z,98901.73
2019-01-30T01:04:08.887Z,98900.91
2019-01-30T01:06:36.522Z,98903.30
2019-01-30T01:09:06.075Z,98903.05
2019-01-30T01:11:34.042Z,98913.44
2019-01-30T01:14:02.008Z,98909.91
2019-01-30T01:16:29.880Z,98911.63
2019-01-30T01:18:57.505Z,98904.43
2019-01-30T01:21:25.406Z,98905.19
2019-01-30T01:23:53.115Z,98909.25
2019-01-30T01:26:21.063Z,98902.45
2019-01-30T01:28:49.008Z,98899.09
2019-01-30T01:31:16.872Z,98891.98
2019-01-30T01:33:44.853Z,98893.60
2019-01-30T01:36:12.817Z,98893.84
2019-01-30T01:38:40.451Z,98894.66
2019-01-30T01:41:08.077Z,98893.71
2019-01-30T01:43:35.710Z,98888.80
2019-01-30T01:46:03.346Z,98880.81
2019-01-30T01:48:31.232Z,98873.97
2019-01-30T01:50:59.220Z,98864.30
2019-01-30T01:53:27.174Z,98863.13
2019-01-30T01:55:55.137Z,98864.06
2019-01-30T01:58:23.111Z,98860.59
2019-01-30T02:00:51.084Z,98862.11
2019-01-30T02:03:19.053Z,98852.66
2019-01-30T02:05:46.688Z,98851.14
2019-01-30T02:08:14.578Z,98836.27
2019-01-30T02:10:42.550Z,98833.02
2019-01-30T02:13:10.536Z,98833.80
2019-01-30T02:15:38.168Z,98827.95
2019-01-30T02:18:08.476Z,98833.78
2019-01-30T02:20:35.656Z,98822.61
2019-01-30T02:23:03.625Z,98821.59
2019-01-30T02:25:31.615Z,98815.05
2019-01-30T02:28:00.876Z,98807.58
2019-01-30T02:30:28.701Z,98807.84
2019-01-30T02:32:56.756Z,98800.24
2019-01-30T02:35:24.380Z,98802.42
2019-01-30T02:37:51.998Z,98786.81
2019-01-30T02:40:19.919Z,98787.91
2019-01-30T02:42:47.903Z,98779.70
2019-01-30T02:45:15.528Z,98773.59
2019-01-30T02:47:43.422Z,98772.08
2019-01-30T02:50:11.040Z,98772.22
2019-01-30T02:52:38.959Z,98768.13
2019-01-30T02:55:06.896Z,98766.94
2019-01-30T02:57:34.792Z,98763.95
2019-01-30T03:00:02.418Z,98767.97
2019-01-30T03:02:30.326Z,98761.33
2019-01-30T03:04:58.296Z,98755.91
2019-01-30T03:07:26.265Z,98754.98
2019-01-30T03:09:53.883Z,98750.17
2019-01-30T03:12:21.786Z,98755.62
2019-01-30T03:14:49.778Z,98761.47
2019-01-30T03:17:17.398Z,98755.46
2019-01-30T03:19:45.287Z,98753.62
2019-01-30T03:22:13.260Z,98754.32
2019-01-30T03:24:41.247Z,98752.11
2019-01-30T03:27:08.867Z,98743.26
2019-01-30T03:29:36.490Z,98751.33
2019-01-30T03:32:04.426Z,98740.19
2019-01-30T03:34:32.039Z,98749.42
2019-01-30T03:36:59.956Z,98740.91
2019-01-30T03:39:27.919Z,98736.28
2019-01-30T03:41:55.892Z,98736.92
2019-01-30T03:44:23.770Z,98741.20
2019-01-30T03:46:51.729Z,98737.74
2019-01-30T03:49:19.699Z,98725.22
2019-01-30T03:51:47.326Z,98730.14
2019-01-30T03:54:14.960Z,98719.53
2019-01-30T03:56:42.887Z,98716.22
2019-01-30T03:59:10.506Z,98720.41
2019-01-30T04:01:38.418Z,98724.74
2019-01-30T04:04:06.046Z,98719.14
2019-01-30T04:06:33.948Z,98717.00
2019-01-30T04:09:01.922Z,98718.75
2019-01-30T04:11:29.884Z,98724.45
2019-01-30T04:14:00.586Z,98723.00
2019-01-30T04:16:27.177Z,98722.79
2019-01-30T04:18:55.130Z,98722.79
2019-01-30T04:21:22.763Z,98720.16
2019-01-30T04:23:50.377Z,98717.88
2019-01-30T04:26:18.322Z,98715.19
2019-01-30T04:28:45.953Z,98715.58
2019-01-30T04:31:13.839Z,98714.13
2019-01-30T04:33:41.710Z,98714.61
2019-01-30T04:36:09.683Z,98714.13
2019-01-30T04:38:37.296Z,98711.30
2019-01-30T04:41:05.234Z,98709.54
2019-01-30T04:43:32.860Z,98702.72
2019-01-30T04:46:00.843Z,98703.98
2019-01-30T04:48:28.816Z,98693.22
2019-01-30T04:50:56.786Z,98688.88
2019-01-30T04:53:24.754Z,98697.36
2019-01-30T04:55:52.765Z,98696.48
2019-01-30T04:58:20.357Z,98697.11
2019-01-30T05:00:48.258Z,98691.11
2019-01-30T05:03:16.226Z,98691.50
2019-01-30T05:05:44.219Z,98693.70
2019-01-30T05:08:11.836Z,98686.11
2019-01-30T05:10:39.823Z,98685.32
2019-01-30T05:13:07.796Z,98677.87
2019-01-30T05:15:35.763Z,98676.30
2019-01-30T05:18:03.399Z,98674.55
2019-01-30T05:20:31.007Z,98673.38
2019-01-30T05:22:58.953Z,98669.78
2019-01-30T05:25:26.936Z,98664.27
2019-01-30T05:27:54.897Z,98664.91
2019-01-30T05:30:22.527Z,98666.86
2019-01-30T05:32:50.155Z,98667.05
2019-01-30T05:35:17.841Z,98661.25
2019-01-30T05:37:45.758Z,98655.70
2019-01-30T05:40:13.362Z,98652.23
2019-01-30T05:42:41.277Z,98651.81
2019-01-30T05:45:08.893Z,98650.63
2019-01-30T05:47:36.815Z,98656.95
2019-01-30T05:50:04.781Z,98656.58
2019-01-30T05:52:32.745Z,98651.12
2019-01-30T05:55:00.366Z,98648.73
2019-01-30T05:57:27.999Z,98647.62
2019-01-30T05:59:55.935Z,98643.67
2019-01-30T06:02:23.912Z,98648.73
2019-01-30T06:04:51.534Z,98644.94
2019-01-30T06:07:19.441Z,98637.73
2019-01-30T06:09:47.410Z,98637.04
2019-01-30T06:12:15.032Z,98634.50
2019-01-30T06:14:42.938Z,98628.33
2019-01-30T06:17:11.033Z,98631.16
2019-01-30T06:19:38.601Z,98634.02
2019-01-30T06:22:06.535Z,98636.31
2019-01-30T06:24:34.164Z,98633.06
2019-01-30T06:27:01.789Z,98635.44
2019-01-30T06:29:29.729Z,98640.59
2019-01-30T06:31:57.351Z,98631.73
2019-01-30T06:34:24.987Z,98642.11
2019-01-30T06:36:52.925Z,98639.09
2019-01-30T06:39:20.892Z,98641.92
2019-01-30T06:41:48.867Z,98643.43
2019-01-30T06:44:16.829Z,98657.12
2019-01-30T06:46:44.805Z,98652.87
2019-01-30T06:49:12.677Z,98655.07
2019-01-30T06:51:40.641Z,98656.34
2019-01-30T06:54:08.506Z,98662.67
2019-01-30T06:56:36.477Z,98660.28
2019-01-30T06:59:04.448Z,98662.52
2019-01-30T07:01:32.486Z,98652.78
2019-01-30T07:04:00.393Z,98651.42
2019-01-30T07:06:28.373Z,98658.23
2019-01-30T07:08:55.987Z,98651.60
2019-01-30T07:11:23.689Z,98646.84
2019-01-30T07:13:51.654Z,98644.79
2019-01-30T07:16:19.621Z,98645.91
2019-01-30T07:18:47.249Z,98650.48
2019-01-30T07:21:14.859Z,98645.27
2019-01-30T07:23:42.486Z,98646.36
2019-01-30T07:26:10.370Z,98652.48
2019-01-30T07:28:38.337Z,98647.47
2019-01-30T07:31:06.206Z,98647.17
2019-01-30T07:33:34.179Z,98646.53
2019-01-30T07:36:01.812Z,98639.33
2019-01-30T07:38:29.440Z,98641.76
2019-01-30T07:40:58.387Z,98637.02
2019-01-30T07:43:26.362Z,98637.66
2019-01-30T07:45:53.977Z,98637.16
2019-01-30T07:48:21.895Z,98636.37
2019-01-30T07:50:49.501Z,98641.83
2019-01-30T07:53:17.417Z,98636.36
2019-01-30T07:55:45.041Z,98641.58
2019-01-30T07:58:12.958Z,98639.44
2019-01-30T08:00:40.921Z,98644.02
2019-01-30T08:03:08.544Z,98645.75
2019-01-30T08:05:36.467Z,98644.23
2019-01-30T08:08:04.400Z,98650.66
2019-01-30T08:10:32.289Z,98646.13
2019-01-30T08:13:00.263Z,98646.61
2019-01-30T08:15:28.233Z,98645.23
2019-01-30T08:17:55.867Z,98641.83
2019-01-30T08:20:23.758Z,98641.97
2019-01-30T08:22:51.539Z,98633.33
2019-01-30T08:25:19.931Z,98639.24
2019-01-30T08:27:47.890Z,98636.59
2019-01-30T08:30:22.284Z,98630.72
2019-01-30T08:32:45.461Z,98637.16
2019-01-30T08:35:13.159Z,98645.92
2019-01-30T08:37:41.081Z,98641.55
2019-01-30T08:40:09.046Z,98638.27
2019-01-30T08:42:36.702Z,98637.48
2019-01-30T08:45:04.327Z,98636.52
2019-01-30T08:47:31.951Z,98635.73
2019-01-30T08:49:59.903Z,98633.94
2019-01-30T08:52:27.879Z,98631.73
2019-01-30T08:54:55.839Z,98637.37
2019-01-30T08:57:23.469Z,98632.90
2019-01-30T08:59:51.370Z,98635.20
2019-01-30T09:02:21.062Z,98624.71
2019-01-30T09:04:48.300Z,98628.06
2019-01-30T09:07:16.203Z,98629.31
2019-01-30T09:09:44.086Z,98626.86
2019-01-30T09:12:12.036Z,98624.01
2019-01-30T09:14:39.924Z,98619.44
2019-01-30T09:17:08.728Z,98621.39
2019-01-30T09:19:36.425Z,98617.56
2019-01-30T09:22:04.042Z,98622.84
2019-01-30T09:24:31.658Z,98622.80
2019-01-30T09:26:59.546Z,98622.80
2019-01-30T09:29:27.528Z,98629.52
2019-01-30T09:31:55.140Z,98618.86
2019-01-30T09:34:23.072Z,98616.91
2019-01-30T09:36:51.017Z,98616.03
2019-01-30T09:39:19.003Z,98615.63
2019-01-30T09:41:46.956Z,98617.28
2019-01-30T09:44:14.936Z,98617.57
2019-01-30T09:46:42.556Z,98613.75
2019-01-30T09:49:10.189Z,98619.92
2019-01-30T09:51:38.191Z,98627.02
2019-01-30T09:54:05.829Z,98624.74
2019-01-30T09:56:33.507Z,98615.34
2019-01-30T09:59:01.080Z,98623.38
2019-01-30T10:01:28.972Z,98619.85
2019-01-30T10:03:56.597Z,98608.37
2019-01-30T10:06:24.213Z,98600.27
2019-01-30T10:08:52.166Z,98599.43
2019-01-30T10:11:20.134Z,98595.14
2019-01-30T10:13:48.104Z,98592.14
2019-01-30T10:16:15.971Z,98598.45
2019-01-30T10:18:43.597Z,98597.67
2019-01-30T10:21:11.213Z,98593.16
2019-01-30T10:23:38.833Z,98588.64
2019-01-30T10:26:06.447Z,98595.53
2019-01-30T10:28:34.384Z,98587.03
2019-01-30T10:31:02.251Z,98590.81
2019-01-30T10:33:30.224Z,98585.66
2019-01-30T10:35:57.851Z,98588.94
2019-01-30T10:38:25.533Z,98583.44
2019-01-30T10:40:53.159Z,98576.86
2019-01-30T10:43:20.787Z,98569.47
2019-01-30T10:45:48.398Z,98572.84
2019-01-30T10:48:16.302Z,98562.45
2019-01-30T10:50:43.909Z,98571.13
2019-01-30T10:53:11.828Z,98562.30
2019-01-30T10:55:39.448Z,98554.70
2019-01-30T10:58:07.353Z,98562.70
2019-01-30T11:00:35.043Z,98563.41
2019-01-30T11:03:02.993Z,98569.11
2019-01-30T11:05:30.609Z,98557.83
2019-01-30T11:07:58.533Z,98569.57
2019-01-30T11:10:26.493Z,98553.53
2019-01-30T11:12:54.118Z,98555.54
2019-01-30T11:15:21.741Z,98554.52
2019-01-30T11:17:49.366Z,98549.34
2019-01-30T11:20:16.997Z,98544.00
2019-01-30T11:22:44.904Z,98538.23
2019-01-30T11:25:12.876Z,98544.77
2019-01-30T11:27:40.844Z,98534.56
2019-01-30T11:30:08.811Z,98528.92
2019-01-30T11:32:36.692Z,98538.55
2019-01-30T11:35:04.647Z,98520.01
2019-01-30T11:37:32.336Z,98520.78
2019-01-30T11:40:00.284Z,98519.17
2019-01-30T11:42:28.252Z,98511.62
2019-01-30T11:44:56.213Z,98509.77
2019-01-30T11:47:24.089Z,98511.47
2019-01-30T11:49:52.079Z,98506.19
2019-01-30T11:52:20.029Z,98502.11
2019-01-30T11:54:47.997Z,98507.86
2019-01-30T11:57:15.884Z,98504.61
2019-01-30T11:59:43.840Z,98490.63
2019-01-30T12:02:11.699Z,98498.20
2019-01-30T12:04:39.667Z,98492.84
2019-01-30T12:07:07.298Z,98491.22
2019-01-30T12:09:34.917Z,98479.23
2019-01-30T12:12:02.862Z,98484.02
2019-01-30T12:14:30.830Z,98487.95
2019-01-30T12:16:58.700Z,98480.83
2019-01-30T12:19:26.668Z,98490.45
2019-01-30T12:21:54.545Z,98478.66
2019-01-30T12:24:22.504Z,98477.14
2019-01-30T12:26:50.122Z,98477.48
2019-01-30T12:29:18.036Z,98478.83
2019-01-30T12:31:45.899Z,98471.58
2019-01-30T12:34:13.872Z,98464.55
2019-01-30T12:36:41.848Z,98476.68
2019-01-30T12:39:10.019Z,98467.66
2019-01-30T12:41:37.639Z,98470.85
2019-01-30T12:44:05.624Z,98471.60
2019-01-30T12:46:33.513Z,98471.14
2019-01-30T12:49:01.158Z,98476.19
2019-01-30T12:51:29.046Z,98467.48
2019-01-30T12:53:57.024Z,98469.89
2019-01-30T12:56:24.633Z,98461.83
2019-01-30T12:58:52.544Z,98459.28
2019-01-30T13:01:20.532Z,98455.27
2019-01-30T13:03:48.154Z,98466.67
2019-01-30T13:06:15.780Z,98466.21
2019-01-30T13:08:43.399Z,98458.78
2019-01-30T13:11:11.369Z,98458.11
2019-01-30T13:13:38.980Z,98464.31
2019-01-30T13:16:06.897Z,98464.67
2019-01-30T13:18:34.871Z,98462.48
2019-01-30T13:21:02.836Z,98458.05
2019-01-30T13:23:30.453Z,98458.14
2019-01-30T13:25:58.376Z,98460.87
2019-01-30T13:28:25.978Z,98461.01
2019-01-30T13:30:53.618Z,98461.01
2019-01-30T13:33:21.563Z,98463.86
2019-01-30T13:35:49.188Z,98452.92
2019-01-30T13:38:16.803Z,98450.08
2019-01-30T13:40:44.753Z,98456.78
2019-01-30T13:43:12.360Z,98450.41
2019-01-30T13:45:40.292Z,98455.05
2019-01-30T13:48:08.279Z,98455.10
2019-01-30T13:50:35.962Z,98452.17
2019-01-30T13:53:04.014Z,98456.81
2019-01-30T13:55:31.885Z,98460.30
2019-01-30T13:58:02.058Z,98455.19
2019-01-30T14:00:29.122Z,98459.74
2019-01-30T14:02:57.113Z,98458.17
2019-01-30T14:05:25.087Z,98451.48
2019-01-30T14:07:52.960Z,98452.66
2019-01-30T14:10:20.897Z,98462.05
2019-01-30T14:12:48.793Z,98457.92
2019-01-30T14:15:16.415Z,98455.37
2019-01-30T14:17:44.009Z,98454.78
2019-01-30T14:20:11.647Z,98464.02
2019-01-30T14:22:39.266Z,98463.40
2019-01-30T14:25:07.217Z,98465.55
2019-01-30T14:27:35.167Z,98464.98
2019-01-30T14:30:02.797Z,98466.02
2019-01-30T14:32:30.411Z,98462.19
2019-01-30T14:34:58.096Z,98470.89
2019-01-30T14:37:26.014Z,98478.48
2019-01-30T14:39:53.650Z,98469.68
2019-01-30T14:42:21.568Z,98467.84
2019-01-30T14:44:49.204Z,98466.91
2019-01-30T14:47:17.092Z,98460.85
2019-01-30T14:49:45.031Z,98458.52
2019-01-30T14:52:12.652Z,98464.27
2019-01-30T14:54:40.342Z,98462.09
2019-01-30T14:57:07.966Z,98467.03
2019-01-30T14:59:35.574Z,98467.22
2019-01-30T15:02:03.209Z,98465.34
2019-01-30T15:04:30.820Z,98462.33
2019-01-30T15:06:58.787Z,98459.63
2019-01-30T15:09:26.397Z,98451.72
2019-01-30T15:11:54.047Z,98456.11
2019-01-30T15:14:21.973Z,98462.37
2019-01-30T15:16:49.952Z,98457.53
2019-01-30T15:19:17.801Z,98448.07
2019-01-30T15:21:45.471Z,98454.01
2019-01-30T15:24:13.336Z,98454.18
2019-01-30T15:26:41.300Z,98458.47
2019-01-30T15:29:09.269Z,98457.00
2019-01-30T15:31:37.238Z,98451.44
2019-01-30T15:34:05.218Z,98450.77
2019-01-30T15:36:32.834Z,98453.66
2019-01-30T15:39:00.737Z,98457.61
2019-01-30T15:41:28.390Z,98452.28
2019-01-30T15:43:56.270Z,98450.06
2019-01-30T15:46:24.240Z,98447.75
2019-01-30T15:48:51.894Z,98451.23
2019-01-30T15:51:19.523Z,98454.48
2019-01-30T15:53:47.434Z,98444.09
2019-01-30T15:56:15.394Z,98442.92
2019-01-30T15:58:43.268Z,98443.56
2019-01-30T16:01:11.236Z,98446.64
2019-01-30T16:03:38.867Z,98449.31
2019-01-30T16:06:06.764Z,98444.66
2019-01-30T16:08:34.380Z,98441.91
2019-01-30T16:11:02.300Z,98446.41
2019-01-30T16:13:30.160Z,98448.84
2019-01-30T16:15:58.140Z,98446.13
2019-01-30T16:18:26.108Z,98451.86
2019-01-30T16:20:54.076Z,98451.95
2019-01-30T16:23:21.709Z,98456.84
2019-01-30T16:25:49.327Z,98459.96
2019-01-30T16:28:17.264Z,98459.38
2019-01-30T16:30:44.887Z,98457.47
2019-01-30T16:33:12.499Z,98464.20
2019-01-30T16:35:40.461Z,98469.11
2019-01-30T16:38:08.424Z,98474.96
2019-01-30T16:40:36.040Z,98485.02
2019-01-30T16:43:03.956Z,98485.65
2019-01-30T16:45:31.589Z,98483.21
2019-01-30T16:47:59.207Z,98496.52
2019-01-30T16:50:27.258Z,98503.80
2019-01-30T16:52:54.877Z,98504.84
2019-01-30T16:55:22.773Z,98504.73
2019-01-30T16:57:50.756Z,98501.95
2019-01-30T17:00:18.393Z,98505.30
2019-01-30T17:02:46.595Z,98506.41
2019-01-30T17:05:14.594Z,98511.70
2019-01-30T17:07:42.220Z,98513.38
2019-01-30T17:10:10.205Z,98517.74
2019-01-30T17:12:38.158Z,98519.39
2019-01-30T17:15:06.136Z,98527.40
2019-01-30T17:17:34.209Z,98531.92
2019-01-30T17:20:02.186Z,98529.61
2019-01-30T17:22:30.143Z,98526.59
2019-01-30T17:24:57.779Z,98528.45
2019-01-30T17:27:25.807Z,98536.66
2019-01-30T17:29:53.915Z,98542.41
2019-01-30T17:32:21.646Z,98541.32
2019-01-30T17:34:51.911Z,98538.63
2019-01-30T17:37:19.187Z,98550.19
2019-01-30T17:39:47.159Z,98548.14
2019-01-30T17:42:14.795Z,98550.45
2019-01-30T17:44:42.689Z,98550.89
2019-01-30T17:47:10.658Z,98541.27
2019-01-30T17:49:38.288Z,98541.41
2019-01-30T17:52:06.298Z,98536.65
2019-01-30T17:54:34.370Z,98545.60
2019-01-30T17:57:02.538Z,98538.45
2019-01-30T17:59:30.506Z,98529.73
2019-01-30T18:01:58.489Z,98529.47
2019-01-30T18:04:26.442Z,98540.63
2019-01-30T18:06:54.089Z,98537.81
2019-01-30T18:09:22.190Z,98540.50
2019-01-30T18:11:49.840Z,98543.27
2019-01-30T18:14:17.818Z,98540.50
2019-01-30T18:16:45.778Z,98548.94
2019-01-30T18:19:13.760Z,98551.72
2019-01-30T18:21:41.722Z,98548.94
2019-01-30T18:24:09.371Z,98560.44
2019-01-30T18:26:38.006Z,98558.19
2019-01-30T18:29:06.034Z,98560.69
2019-01-30T18:31:33.675Z,98554.39
2019-01-30T18:34:01.570Z,98558.20
2019-01-30T18:36:40.357Z,98558.90
2019-01-30T18:38:58.841Z,98561.16
2019-01-30T18:41:26.495Z,98567.75
2019-01-30T18:43:54.480Z,98562.03
2019-01-30T18:46:22.444Z,98564.47
2019-01-30T18:48:50.076Z,98565.45
2019-01-30T18:51:17.713Z,98556.46
2019-01-30T18:53:45.360Z,98565.61
2019-01-30T18:56:13.449Z,98565.16
2019-01-30T18:58:41.366Z,98559.49
2019-01-30T19:01:09.439Z,98559.64
2019-01-30T19:03:37.078Z,98562.72
2019-01-30T19:06:04.720Z,98565.05
2019-01-30T19:08:32.376Z,98562.97
2019-01-30T19:11:00.311Z,98564.10
2019-01-30T19:13:28.273Z,98565.73
2019-01-30T19:15:56.237Z,98566.72
2019-01-30T19:18:24.203Z,98562.39
2019-01-30T19:20:52.172Z,98564.92
2019-01-30T19:23:20.140Z,98564.94
2019-01-30T19:25:48.221Z,98563.78
2019-01-30T19:28:16.516Z,98567.13
2019-01-30T19:30:45.203Z,98558.22
2019-01-30T19:33:13.258Z,98558.03
2019-01-30T19:35:41.231Z,98563.99
2019-01-30T19:38:09.193Z,98566.36
2019-01-30T19:40:37.156Z,98571.23
2019-01-30T19:43:04.800Z,98565.67
2019-01-30T19:45:32.431Z,98563.19
2019-01-30T19:48:00.363Z,98565.63
2019-01-30T19:50:28.425Z,98573.08
2019-01-30T19:52:56.390Z,98566.09
2019-01-30T19:55:24.010Z,98575.56
2019-01-30T19:57:51.653Z,98567.12
2019-01-30T20:00:19.343Z,98565.95
2019-01-30T20:02:47.241Z,98570.17
2019-01-30T20:05:15.215Z,98572.90
2019-01-30T20:07:42.847Z,98568.50
2019-01-30T20:10:10.848Z,98572.84
2019-01-30T20:12:38.478Z,98569.67
2019-01-30T20:15:06.101Z,98568.00
2019-01-30T20:17:33.801Z,98576.73
2019-01-30T20:20:01.501Z,98558.55
2019-01-30T20:22:29.463Z,98568.98
2019-01-30T20:24:57.095Z,98571.39
2019-01-30T20:27:24.720Z,98571.28
2019-01-30T20:29:52.761Z,98574.30
2019-01-30T20:32:20.732Z,98581.13
2019-01-30T20:34:48.696Z,98585.39
2019-01-30T20:37:25.897Z,98588.63
2019-01-30T20:39:46.377Z,98584.52
2019-01-30T20:42:14.003Z,98593.10
2019-01-30T20:44:41.634Z,98589.21
2019-01-30T20:47:09.606Z,98590.37
2019-01-30T20:49:37.591Z,98583.64
2019-01-30T20:52:05.234Z,98586.98
2019-01-30T20:54:33.194Z,98602.15
2019-01-30T20:57:00.902Z,98595.67
2019-01-30T20:59:28.808Z,98598.50
2019-01-30T21:01:56.777Z,98590.47
2019-01-30T21:04:24.416Z,98599.23
2019-01-30T21:06:52.401Z,98596.93
2019-01-30T21:09:20.376Z,98601.36
2019-01-30T21:11:48.344Z,98593.80
2019-01-30T21:14:16.318Z,98598.73
2019-01-30T21:16:43.952Z,98602.40
2019-01-30T21:19:11.659Z,98601.45
2019-01-30T21:21:39.306Z,98601.84
2019-01-30T21:24:07.298Z,98587.86
2019-01-30T21:26:35.348Z,98590.45
2019-01-30T21:29:03.420Z,98589.41
2019-01-30T21:31:31.385Z,98591.87
2019-01-30T21:33:59.023Z,98587.73
2019-01-30T21:36:27.044Z,98594.90
2019-01-30T21:38:54.987Z,98594.12
2019-01-30T21:41:22.617Z,98588.16
2019-01-30T21:43:50.518Z,98590.70
2019-01-30T21:46:18.487Z,98591.65
2019-01-30T21:48:46.132Z,98587.23
2019-01-30T21:51:14.026Z,98593.44
2019-01-30T21:53:41.985Z,98596.73
2019-01-30T21:56:10.049Z,98594.27
2019-01-30T21:58:38.035Z,98590.30
2019-01-30T22:01:05.851Z,98600.03
2019-01-30T22:03:33.864Z,98603.66
2019-01-30T22:06:01.510Z,98600.71
2019-01-30T22:08:29.602Z,98603.39
2019-01-30T22:10:57.233Z,98608.27
2019-01-30T22:13:24.884Z,98611.41
2019-01-30T22:15:52.524Z,98617.57
2019-01-30T22:18:20.452Z,98616.18
2019-01-30T22:20:48.424Z,98614.31
2019-01-30T22:23:16.398Z,98612.25
2019-01-30T22:25:44.364Z,98613.24
2019-01-30T22:28:11.997Z,98613.99
2019-01-30T22:30:39.651Z,98619.28
2019-01-30T22:33:07.562Z,98619.52
2019-01-30T22:35:35.238Z,98620.67
2019-01-30T22:38:11.987Z,98624.24
2019-01-30T22:40:32.902Z,98625.63
2019-01-30T22:43:00.869Z,98617.53
2019-01-30T22:45:28.839Z,98623.69
2019-01-30T22:47:56.466Z,98626.28
2019-01-30T22:50:24.470Z,98631.31
2019-01-30T22:52:52.126Z,98634.45
2019-01-30T22:55:19.816Z,98627.70
2019-01-30T22:57:50.740Z,98635.80
2019-01-30T23:00:17.479Z,98631.44
2019-01-30T23:02:45.447Z,98632.44
2019-01-30T23:05:13.096Z,98633.91
2019-01-30T23:07:41.218Z,98636.45
2019-01-30T23:10:09.157Z,98631.64
2019-01-30T23:12:37.122Z,98626.31
2019-01-30T23:15:05.090Z,98626.55
2019-01-30T23:17:32.745Z,98620.27
2019-01-30T23:20:00.715Z,98628.97
2019-01-30T23:22:28.356Z,98618.01
2019-01-30T23:24:56.359Z,98622.42
2019-01-30T23:27:24.319Z,98621.06
2019-01-30T23:29:52.288Z,98615.11
2019-01-30T23:32:20.267Z,98621.14
2019-01-30T23:34:48.305Z,98620.67
2019-01-30T23:37:16.296Z,98619.16
2019-01-30T23:39:44.273Z,98615.94
2019-01-30T23:42:12.238Z,98618.12
2019-01-30T23:44:39.894Z,98621.27
2019-01-30T23:47:07.972Z,98621.27
2019-01-30T23:49:35.946Z,98621.47
2019-01-30T23:52:03.589Z,98622.89
2019-01-30T23:54:31.238Z,98616.78
2019-01-30T23:56:59.267Z,98614.67
2019-01-30T23:59:27.213Z,98618.48
